createdAt,value
2022-08-05T00:00:26.176Z,74.80
2022-08-05T00:02:58.138Z,74.80
2022-08-05T00:06:06.384Z,75.00
2022-08-05T00:08:34.305Z,75.30
2022-08-05T00:11:20.616Z,75.30
2022-08-05T00:14:00.256Z,75.40
2022-08-05T00:16:35.739Z,75.50
2022-08-05T00:19:08.641Z,75.40
2022-08-05T00:21:42.604Z,75.70
2022-08-05T00:24:16.119Z,75.70
2022-08-05T00:26:51.987Z,75.80
2022-08-05T00:29:25.729Z,75.80
2022-08-05T00:32:13.142Z,75.80
2022-08-05T00:35:04.581Z,75.80
2022-08-05T00:37:52.412Z,75.70
2022-08-05T00:40:29.224Z,75.70
2022-08-05T00:43:02.918Z,75.90
2022-08-05T00:45:43.768Z,75.80
2022-08-05T00:48:19.470Z,75.80
2022-08-05T00:51:08.733Z,76.00
2022-08-05T00:54:02.490Z,75.90
2022-08-05T00:56:35.017Z,76.00
2022-08-05T00:59:07.257Z,76.40
2022-08-05T01:01:42.716Z,76.10
2022-08-05T01:04:27.031Z,76.30
2022-08-05T01:07:02.174Z,76.30
2022-08-05T01:09:37.280Z,76.30
2022-08-05T01:12:18.776Z,76.50
2022-08-05T01:15:04.074Z,76.60
2022-08-05T01:17:46.263Z,76.70
2022-08-05T01:20:46.237Z,76.50
2022-08-05T01:23:34.752Z,76.50
2022-08-05T01:26:30.171Z,76.60
2022-08-05T01:29:07.622Z,76.70
2022-08-05T01:31:46.276Z,76.80
2022-08-05T01:34:49.939Z,77.10
2022-08-05T01:37:44.324Z,77.20
2022-08-05T01:40:18.617Z,77.30
2022-08-05T01:42:52.219Z,77.50
2022-08-05T01:45:26.535Z,77.10
2022-08-05T01:48:10.211Z,77.30
2022-08-05T01:50:51.093Z,77.20
2022-08-05T01:53:57.723Z,77.60
2022-08-05T01:58:09.563Z,77.70
2022-08-05T01:59:16.822Z,77.70
2022-08-05T02:01:51.603Z,77.80
2022-08-05T02:04:28.823Z,77.80
2022-08-05T02:07:03.429Z,77.90
2022-08-05T02:09:38.019Z,77.90
2022-08-05T02:12:42.115Z,77.70
2022-08-05T02:15:19.946Z,77.80
2022-08-05T02:18:28.020Z,77.60
2022-08-05T02:21:15.375Z,77.70
2022-08-05T02:23:51.568Z,78.00
2022-08-05T02:26:35.518Z,78.00
2022-08-05T02:29:21.572Z,78.20
2022-08-05T02:31:58.044Z,78.00
2022-08-05T02:34:32.698Z,78.20
2022-08-05T02:37:09.552Z,78.30
2022-08-05T02:39:42.438Z,78.10
2022-08-05T02:42:26.074Z,78.30
2022-08-05T02:45:04.384Z,78.40
2022-08-05T02:48:06.970Z,78.60
2022-08-05T02:50:30.018Z,78.40
2022-08-05T02:53:02.856Z,78.10
2022-08-05T02:55:54.028Z,78.10
2022-08-05T02:58:28.777Z,78.20
2022-08-05T03:01:02.889Z,78.10
2022-08-05T03:04:02.691Z,78.20
2022-08-05T03:06:56.815Z,78.10
2022-08-05T03:09:27.074Z,78.10
2022-08-05T03:12:08.911Z,78.40
2022-08-05T03:14:46.019Z,78.50
2022-08-05T03:17:18.150Z,78.70
2022-08-05T03:19:52.281Z,78.90
2022-08-05T03:22:32.162Z,78.80
2022-08-05T03:25:31.984Z,79.00
2022-08-05T03:27:59.633Z,78.90
2022-08-05T03:30:33.676Z,79.10
2022-08-05T03:33:07.378Z,79.30
2022-08-05T03:35:40.875Z,79.50
2022-08-05T03:38:14.746Z,79.50
2022-08-05T03:40:48.563Z,79.60
2022-08-05T03:44:08.598Z,79.50
2022-08-05T03:46:12.885Z,79.50
2022-08-05T03:48:45.268Z,79.50
2022-08-05T03:52:37.213Z,79.80
2022-08-05T03:56:05.995Z,80.00
2022-08-05T03:58:05.348Z,80.00
2022-08-05T04:00:39.800Z,80.40
2022-08-05T04:03:28.304Z,80.30
2022-08-05T04:06:00.842Z,80.30
2022-08-05T04:08:36.696Z,80.20
2022-08-05T04:11:09.974Z,80.40
2022-08-05T04:13:51.180Z,80.30
2022-08-05T04:16:32.461Z,80.50
2022-08-05T04:19:10.515Z,80.70
2022-08-05T04:22:10.081Z,80.60
2022-08-05T04:24:34.594Z,80.40
2022-08-05T04:27:06.511Z,80.20
2022-08-05T04:29:39.609Z,79.80
2022-08-05T04:32:11.557Z,80.10
2022-08-05T04:34:43.856Z,80.10
2022-08-05T04:37:15.726Z,80.00
2022-08-05T04:39:52.845Z,80.30
2022-08-05T04:42:27.568Z,81.00
2022-08-05T04:44:59.485Z,80.70
2022-08-05T04:47:38.668Z,81.00
2022-08-05T04:50:15.024Z,80.90
2022-08-05T04:53:08.434Z,80.60
2022-08-05T04:56:32.306Z,80.30
2022-08-05T04:58:32.732Z,80.00
2022-08-05T05:01:04.728Z,79.70
2022-08-05T05:03:42.148Z,79.20
2022-08-05T05:06:39.125Z,78.90
2022-08-05T05:09:06.618Z,78.50
2022-08-05T05:11:48.548Z,78.20
2022-08-05T05:14:31.936Z,77.90
2022-08-05T05:17:07.574Z,77.60
2022-08-05T05:19:56.515Z,77.10
2022-08-05T05:22:28.627Z,77.10
2022-08-05T05:25:01.271Z,76.60
2022-08-05T05:27:48.591Z,76.60
2022-08-05T05:30:30.555Z,76.10
2022-08-05T05:33:16.491Z,75.70
2022-08-05T05:35:49.351Z,75.40
2022-08-05T05:38:22.889Z,74.80
2022-08-05T05:40:59.550Z,74.70
2022-08-05T05:43:57.397Z,74.70
2022-08-05T05:46:23.229Z,74.20
2022-08-05T05:48:55.174Z,73.40
2022-08-05T05:51:27.813Z,73.30
2022-08-05T05:54:00.214Z,72.90
2022-08-05T05:56:34.492Z,72.40
2022-08-05T05:59:07.653Z,72.10
2022-08-05T06:01:41.279Z,71.50
2022-08-05T06:04:29.898Z,71.70
2022-08-05T06:07:01.792Z,71.40
2022-08-05T06:10:01.515Z,70.40
2022-08-05T06:12:27.267Z,69.50
2022-08-05T06:15:01.650Z,69.10
2022-08-05T06:17:52.763Z,68.40
2022-08-05T06:20:26.033Z,67.70
2022-08-05T06:23:00.556Z,67.80
2022-08-05T06:26:13.744Z,67.50
2022-08-05T06:28:28.592Z,66.80
2022-08-05T06:31:00.679Z,66.10
2022-08-05T06:34:07.817Z,64.70
2022-08-05T06:36:37.517Z,65.00
2022-08-05T06:39:27.795Z,64.50
2022-08-05T06:42:04.123Z,62.90
2022-08-05T06:44:36.673Z,62.50
2022-08-05T06:48:11.866Z,62.40
2022-08-05T06:50:05.170Z,61.00
2022-08-05T06:52:40.335Z,60.80
2022-08-05T06:55:12.528Z,59.80
2022-08-05T06:57:57.676Z,59.70
2022-08-05T07:00:38.597Z,59.60
2022-08-05T07:03:13.073Z,60.00
2022-08-05T07:05:48.603Z,58.90
2022-08-05T07:08:25.153Z,58.30
2022-08-05T07:10:57.338Z,58.30
2022-08-05T07:13:57.968Z,58.60
2022-08-05T07:18:02.208Z,58.50
2022-08-05T07:22:33.458Z,58.10
2022-08-05T07:25:21.890Z,56.40
2022-08-05T07:28:04.229Z,56.10
2022-08-05T07:30:41.807Z,56.60
2022-08-05T07:33:16.102Z,55.50
2022-08-05T07:36:02.248Z,55.90
2022-08-05T07:38:43.131Z,57.20
2022-08-05T07:42:08.289Z,56.40
2022-08-05T07:44:12.150Z,57.00
2022-08-05T07:46:50.747Z,55.80
2022-08-05T07:49:23.438Z,56.40
2022-08-05T07:51:55.358Z,56.50
2022-08-05T07:54:31.391Z,55.50
2022-08-05T07:57:17.732Z,56.80
2022-08-05T07:59:57.661Z,56.90
2022-08-05T08:02:31.241Z,57.50
2022-08-05T08:05:21.703Z,56.80
2022-08-05T08:07:59.064Z,57.80
2022-08-05T08:10:32.443Z,56.40
2022-08-05T08:13:04.912Z,56.50
2022-08-05T08:16:49.746Z,56.00
2022-08-05T08:18:29.738Z,56.20
2022-08-05T08:21:03.489Z,56.10
2022-08-05T08:24:01.409Z,56.20
2022-08-05T08:26:30.019Z,56.60
2022-08-05T08:30:04.231Z,55.70
2022-08-05T08:31:54.712Z,55.90
2022-08-05T08:34:30.521Z,56.30
2022-08-05T08:37:05.671Z,55.70
2022-08-05T08:39:38.162Z,55.30
2022-08-05T08:42:34.264Z,55.30
2022-08-05T08:45:23.347Z,54.80
2022-08-05T08:48:12.909Z,55.70
2022-08-05T08:51:22.010Z,55.10
2022-08-05T08:53:47.034Z,56.30
2022-08-05T08:56:21.016Z,56.00
2022-08-05T08:58:54.561Z,56.10
2022-08-05T09:01:26.642Z,55.70
2022-08-05T09:04:00.454Z,56.50
2022-08-05T09:06:32.287Z,56.70
2022-08-05T09:09:08.229Z,55.90
2022-08-05T09:11:51.276Z,55.60
2022-08-05T09:14:57.620Z,55.20
2022-08-05T09:17:43.016Z,56.00
2022-08-05T09:20:12.433Z,56.00
2022-08-05T09:23:19.940Z,55.80
2022-08-05T09:26:10.469Z,54.80
2022-08-05T09:28:48.396Z,55.10
2022-08-05T09:31:43.269Z,55.20
2022-08-05T09:34:13.894Z,55.30
2022-08-05T09:36:56.185Z,55.60
2022-08-05T09:39:41.669Z,55.70
2022-08-05T09:42:24.057Z,55.80
2022-08-05T09:45:17.881Z,55.70
2022-08-05T09:47:58.973Z,54.90
2022-08-05T09:50:44.402Z,54.10
2022-08-05T09:53:25.794Z,54.80
2022-08-05T09:56:04.008Z,55.00
2022-08-05T09:58:37.151Z,54.30
2022-08-05T10:01:22.357Z,53.60
2022-08-05T10:04:10.614Z,53.10
2022-08-05T10:06:59.299Z,53.70
2022-08-05T10:09:45.366Z,53.20
2022-08-05T10:12:30.352Z,54.00
2022-08-05T10:15:22.391Z,54.00
2022-08-05T10:18:07.768Z,54.80
2022-08-05T10:20:47.766Z,54.10
2022-08-05T10:23:58.966Z,53.90
2022-08-05T10:26:32.583Z,54.10
2022-08-05T10:29:07.989Z,53.60
2022-08-05T10:32:54.908Z,53.40
2022-08-05T10:34:34.808Z,53.20
2022-08-05T10:37:06.765Z,53.60
2022-08-05T10:40:03.096Z,53.90
2022-08-05T10:42:38.806Z,55.00
2022-08-05T10:45:23.537Z,54.40
2022-08-05T10:48:52.860Z,54.50
2022-08-05T10:51:57.778Z,54.40
2022-08-05T10:55:05.841Z,55.10
2022-08-05T10:57:41.282Z,54.90
2022-08-05T11:00:23.198Z,54.80
2022-08-05T11:03:24.529Z,54.80
2022-08-05T11:06:17.838Z,55.40
2022-08-05T11:09:24.478Z,55.40
2022-08-05T11:12:04.793Z,54.90
2022-08-05T11:17:59.858Z,55.60
2022-08-05T11:20:46.112Z,55.50
2022-08-05T11:24:04.923Z,55.80
2022-08-05T11:26:32.904Z,55.30
2022-08-05T11:29:13.324Z,54.90
2022-08-05T11:31:54.275Z,55.10
2022-08-05T11:34:51.010Z,55.40
2022-08-05T11:38:26.664Z,55.50
2022-08-05T11:41:34.757Z,55.20
2022-08-05T11:44:05.706Z,55.50
2022-08-05T11:47:09.283Z,55.50
2022-08-05T11:49:34.878Z,54.40
2022-08-05T11:52:11.382Z,55.10
2022-08-05T11:54:55.046Z,55.60
2022-08-05T11:58:08.326Z,55.70
2022-08-05T12:00:31.915Z,56.00
2022-08-05T12:03:29.481Z,55.80
2022-08-05T12:06:05.774Z,56.40
2022-08-05T12:08:49.859Z,56.90
2022-08-05T12:11:28.463Z,56.50
2022-08-05T12:14:12.695Z,56.80
2022-08-05T12:16:49.617Z,57.10
2022-08-05T12:20:27.272Z,56.90
2022-08-05T12:22:20.961Z,57.20
2022-08-05T12:24:58.768Z,56.90
2022-08-05T12:27:33.770Z,56.60
2022-08-05T12:30:10.382Z,56.50
2022-08-05T12:32:53.620Z,56.00
2022-08-05T12:35:37.226Z,56.00
2022-08-05T12:38:11.795Z,55.30
2022-08-05T12:40:47.080Z,55.60
2022-08-05T12:43:20.552Z,55.70
2022-08-05T12:45:56.971Z,55.50
2022-08-05T12:48:39.637Z,56.00
2022-08-05T12:52:10.643Z,56.00
2022-08-05T12:54:14.684Z,55.90
2022-08-05T12:56:51.799Z,55.70
2022-08-05T13:00:08.878Z,55.60
2022-08-05T13:02:36.233Z,55.60
2022-08-05T13:05:11.130Z,55.40
2022-08-05T13:08:02.064Z,55.40
2022-08-05T13:10:48.744Z,55.30
2022-08-05T13:14:04.785Z,55.30
2022-08-05T13:16:20.303Z,55.80
2022-08-05T13:18:55.070Z,55.40
2022-08-05T13:21:38.143Z,55.70
2022-08-05T13:24:27.547Z,55.90
2022-08-05T13:27:38.157Z,55.80
2022-08-05T13:30:33.645Z,55.70
2022-08-05T13:33:04.810Z,55.70
2022-08-05T13:35:47.149Z,56.10
2022-08-05T13:38:30.197Z,56.00
2022-08-05T13:41:03.815Z,55.60
2022-08-05T13:43:43.305Z,56.30
2022-08-05T13:46:30.684Z,56.00
2022-08-05T13:49:11.723Z,55.80
2022-08-05T13:51:45.831Z,55.40
2022-08-05T13:54:21.082Z,55.10
2022-08-05T13:56:56.757Z,55.30
2022-08-05T13:59:30.672Z,55.50
2022-08-05T14:02:04.340Z,55.40
2022-08-05T14:04:57.133Z,55.10
2022-08-05T14:07:59.658Z,55.30
2022-08-05T14:10:28.710Z,56.00
2022-08-05T14:13:02.973Z,56.60
2022-08-05T14:16:05.605Z,56.30
2022-08-05T14:18:27.469Z,56.60
2022-08-05T14:21:00.129Z,56.60
2022-08-05T14:23:36.475Z,56.90
2022-08-05T14:26:09.120Z,57.30
2022-08-05T14:29:00.994Z,57.40
2022-08-05T14:32:03.583Z,57.40
2022-08-05T14:34:26.344Z,57.90
2022-08-05T14:36:58.590Z,58.00
2022-08-05T14:39:31.823Z,57.80
2022-08-05T14:42:22.364Z,57.20
2022-08-05T14:44:54.282Z,57.40
2022-08-05T14:48:03.916Z,57.40
2022-08-05T14:50:20.496Z,57.30
2022-08-05T14:52:57.714Z,57.50
2022-08-05T14:55:39.362Z,57.50
2022-08-05T14:58:13.966Z,57.40
2022-08-05T15:00:58.800Z,57.30
2022-08-05T15:03:33.809Z,57.20
2022-08-05T15:06:15.403Z,58.00
2022-08-05T15:08:59.855Z,57.50
2022-08-05T15:11:53.272Z,57.20
2022-08-05T15:14:35.584Z,56.90
2022-08-05T15:17:45.988Z,57.70
2022-08-05T15:20:15.689Z,57.40
2022-08-05T15:22:54.249Z,57.10
2022-08-05T15:25:41.062Z,56.80
2022-08-05T15:28:18.921Z,57.10
2022-08-05T15:30:53.015Z,57.50
2022-08-05T15:34:18.506Z,57.30
2022-08-05T15:36:24.602Z,58.00
2022-08-05T15:40:42.738Z,57.40
2022-08-05T15:41:57.908Z,57.90
2022-08-05T15:44:31.254Z,57.70
2022-08-05T15:47:04.296Z,57.70
2022-08-05T15:49:53.397Z,57.50
2022-08-05T15:52:29.509Z,58.30
2022-08-05T15:55:24.706Z,58.00
2022-08-05T15:57:57.094Z,58.00
2022-08-05T16:00:50.273Z,58.00
2022-08-05T16:03:21.081Z,58.00
2022-08-05T16:05:55.955Z,58.10
2022-08-05T16:08:30.794Z,58.00
2022-08-05T16:11:03.347Z,58.20
2022-08-05T16:13:36.956Z,58.50
2022-08-05T16:16:10.780Z,58.10
2022-08-05T16:18:52.450Z,58.10
2022-08-05T16:22:01.087Z,58.20
2022-08-05T16:24:40.573Z,58.50
2022-08-05T16:27:08.788Z,58.20
2022-08-05T16:29:44.165Z,57.60
2022-08-05T16:32:28.419Z,57.80
2022-08-05T16:35:01.538Z,57.90
2022-08-05T16:38:03.497Z,57.50
2022-08-05T16:40:29.110Z,57.90
2022-08-05T16:43:01.518Z,57.40
2022-08-05T16:46:04.278Z,57.40
2022-08-05T16:48:33.957Z,57.60
2022-08-05T16:51:09.009Z,58.00
2022-08-05T16:54:03.247Z,58.20
2022-08-05T16:56:35.417Z,57.90
2022-08-05T16:59:10.141Z,57.80
2022-08-05T17:01:54.976Z,57.80
2022-08-05T17:04:28.344Z,57.90
2022-08-05T17:07:01.478Z,57.80
2022-08-05T17:09:38.938Z,57.90
2022-08-05T17:12:50.632Z,57.70
2022-08-05T17:15:19.481Z,57.90
2022-08-05T17:17:55.037Z,57.40
2022-08-05T17:20:27.476Z,57.80
2022-08-05T17:23:00.521Z,57.80
2022-08-05T17:25:33.760Z,58.00
2022-08-05T17:28:15.583Z,58.20
2022-08-05T17:30:50.693Z,58.10
2022-08-05T17:33:24.195Z,58.10
2022-08-05T17:36:07.276Z,58.30
2022-08-05T17:38:42.177Z,58.40
2022-08-05T17:42:16.532Z,58.20
2022-08-05T17:44:06.686Z,58.10
2022-08-05T17:46:43.042Z,58.80
2022-08-05T17:49:15.016Z,58.80
2022-08-05T17:51:46.924Z,59.40
2022-08-05T17:54:23.633Z,59.60
2022-08-05T17:56:55.545Z,60.10
2022-08-05T17:59:30.551Z,60.00
2022-08-05T18:02:10.796Z,60.70
2022-08-05T18:04:53.292Z,61.10
2022-08-05T18:07:25.356Z,61.60
2022-08-05T18:10:10.489Z,61.60
2022-08-05T18:12:43.093Z,61.30
2022-08-05T18:15:15.011Z,61.70
2022-08-05T18:17:58.927Z,61.50
2022-08-05T18:20:34.732Z,61.50
2022-08-05T18:23:11.465Z,61.60
2022-08-05T18:25:45.278Z,61.80
2022-08-05T18:28:17.821Z,62.10
2022-08-05T18:30:53.995Z,62.20
2022-08-05T18:33:26.843Z,62.40
2022-08-05T18:36:15.399Z,62.90
2022-08-05T18:38:47.747Z,62.80
2022-08-05T18:41:58.087Z,63.00
2022-08-05T18:44:12.720Z,63.00
2022-08-05T18:46:44.724Z,63.00
2022-08-05T18:49:57.279Z,63.30
2022-08-05T18:52:35.706Z,63.60
2022-08-05T18:55:10.624Z,63.60
2022-08-05T18:57:50.147Z,63.80
2022-08-05T19:00:28.580Z,64.40
2022-08-05T19:03:03.750Z,64.90
2022-08-05T19:06:13.287Z,65.00
2022-08-05T19:08:30.945Z,65.60
2022-08-05T19:11:05.076Z,65.00
2022-08-05T19:13:39.204Z,65.30
2022-08-05T19:16:24.878Z,65.70
2022-08-05T19:19:01.304Z,65.90
2022-08-05T19:21:34.773Z,65.90
2022-08-05T19:24:12.564Z,66.20
2022-08-05T19:26:54.559Z,66.60
2022-08-05T19:29:35.699Z,66.90
2022-08-05T19:32:11.420Z,67.20
2022-08-05T19:34:55.091Z,67.10
2022-08-05T19:37:29.793Z,67.00
2022-08-05T19:40:19.018Z,67.00
2022-08-05T19:43:00.862Z,66.40
2022-08-05T19:45:37.551Z,66.40
2022-08-05T19:48:26.403Z,66.00
2022-08-05T19:50:58.332Z,66.20
2022-08-05T19:54:03.698Z,66.80
2022-08-05T19:56:29.747Z,66.90
2022-08-05T19:59:53.731Z,67.00
2022-08-05T20:02:03.025Z,66.60
2022-08-05T20:04:35.170Z,66.50
2022-08-05T20:07:13.216Z,66.20
2022-08-05T20:09:54.709Z,66.40
2022-08-05T20:12:28.732Z,66.20
2022-08-05T20:15:00.789Z,66.20
2022-08-05T20:17:32.747Z,66.10
2022-08-05T20:20:10.850Z,66.20
2022-08-05T20:22:44.139Z,66.50
2022-08-05T20:25:18.809Z,66.80
2022-08-05T20:27:55.249Z,67.20
2022-08-05T20:30:30.308Z,67.60
2022-08-05T20:33:02.276Z,67.80
2022-08-05T20:35:40.469Z,68.00
2022-08-05T20:38:27.159Z,68.20
2022-08-05T20:41:00.487Z,68.00
2022-08-05T20:44:00.010Z,68.00
2022-08-05T20:46:29.071Z,68.20
2022-08-05T20:49:02.481Z,68.30
2022-08-05T20:51:38.108Z,68.60
2022-08-05T20:54:13.968Z,68.50
2022-08-05T20:56:46.369Z,68.90
2022-08-05T20:59:27.055Z,69.20
2022-08-05T21:02:13.309Z,69.50
2022-08-05T21:04:50.287Z,69.70
2022-08-05T21:07:23.682Z,69.90
2022-08-05T21:09:55.666Z,70.20
2022-08-05T21:12:30.175Z,69.30
2022-08-05T21:15:02.518Z,69.30
2022-08-05T21:17:35.667Z,69.40
2022-08-05T21:20:10.008Z,69.40
2022-08-05T21:22:42.398Z,69.80
2022-08-05T21:25:14.493Z,70.20
2022-08-05T21:27:47.734Z,70.30
2022-08-05T21:30:24.806Z,70.10
2022-08-05T21:32:57.771Z,69.90
2022-08-05T21:35:55.599Z,70.10
2022-08-05T21:38:22.063Z,70.10
2022-08-05T21:40:54.031Z,70.40
2022-08-05T21:43:25.935Z,70.70
2022-08-05T21:46:00.450Z,71.00
2022-08-05T21:48:32.783Z,70.80
2022-08-05T21:52:16.657Z,70.50
2022-08-05T21:54:03.507Z,70.30
2022-08-05T21:56:36.031Z,69.90
2022-08-05T21:59:24.933Z,70.10
2022-08-05T22:01:58.244Z,69.90
2022-08-05T22:04:30.364Z,69.80
2022-08-05T22:07:02.318Z,70.40
2022-08-05T22:09:45.985Z,70.60
2022-08-05T22:12:18.434Z,70.40
2022-08-05T22:14:58.659Z,70.00
2022-08-05T22:17:31.820Z,69.80
2022-08-05T22:20:16.314Z,69.90
2022-08-05T22:23:16.551Z,69.50
2022-08-05T22:26:09.955Z,69.30
2022-08-05T22:28:42.841Z,69.70
2022-08-05T22:31:15.252Z,70.00
2022-08-05T22:33:56.705Z,70.00
2022-08-05T22:36:32.491Z,69.50
2022-08-05T22:39:09.487Z,69.90
2022-08-05T22:42:11.435Z,69.70
2022-08-05T22:44:35.803Z,70.40
2022-08-05T22:47:07.682Z,70.50
2022-08-05T22:50:17.908Z,70.50
2022-08-05T22:52:34.189Z,70.70
2022-08-05T22:55:19.466Z,70.40
2022-08-05T22:57:53.440Z,70.40
2022-08-05T23:00:26.490Z,70.70
2022-08-05T23:02:59.266Z,70.60
2022-08-05T23:05:31.232Z,70.80
2022-08-05T23:08:08.167Z,71.10
2022-08-05T23:10:43.373Z,71.40
2022-08-05T23:13:15.206Z,71.90
2022-08-05T23:15:50.364Z,72.20
2022-08-05T23:18:22.876Z,72.00
2022-08-05T23:20:55.094Z,71.90
2022-08-05T23:23:29.957Z,71.80
2022-08-05T23:26:05.896Z,71.50
2022-08-05T23:28:38.869Z,71.30
2022-08-05T23:31:17.277Z,71.00
2022-08-05T23:34:04.255Z,70.80
2022-08-05T23:36:44.216Z,70.70
2022-08-05T23:39:32.056Z,71.10
2022-08-05T23:42:04.748Z,71.40
2022-08-05T23:44:40.644Z,71.20
2022-08-05T23:47:16.247Z,71.20
2022-08-05T23:49:48.223Z,71.70
2022-08-05T23:52:29.313Z,72.10
2022-08-05T23:55:08.946Z,72.30
2022-08-05T23:57:41.083Z,72.40
